createdAt,value
2022-09-03T00:00:10.627Z,100384.78
2022-09-03T00:05:15.197Z,100382.28
2022-09-03T00:10:31.646Z,100381.06
2022-09-03T00:15:34.439Z,100384.50
2022-09-03T00:20:42.836Z,100372.84
2022-09-03T00:25:56.236Z,100360.75
2022-09-03T00:31:39.218Z,100361.22
2022-09-03T00:36:42.973Z,100354.56
2022-09-03T00:41:50.252Z,100355.13
2022-09-03T00:47:30.173Z,100353.34
2022-09-03T00:52:49.959Z,100353.47
2022-09-03T00:58:10.118Z,100349.28
2022-09-03T01:03:42.858Z,100348.53
2022-09-03T01:08:47.444Z,100344.25
2022-09-03T01:13:58.740Z,100349.59
2022-09-03T01:19:09.810Z,100341.00
2022-09-03T01:24:45.383Z,100350.81
2022-09-03T01:30:30.476Z,100352.97
2022-09-03T01:35:43.807Z,100352.81
2022-09-03T01:41:30.014Z,100353.19
2022-09-03T01:46:40.049Z,100372.25
2022-09-03T01:51:41.858Z,100371.25
2022-09-03T01:57:05.007Z,100366.44
2022-09-03T02:02:21.146Z,100361.94
2022-09-03T02:07:24.073Z,100358.03
2022-09-03T02:12:26.005Z,100348.09
2022-09-03T02:17:27.575Z,100358.66
2022-09-03T02:22:29.183Z,100357.66
2022-09-03T02:27:31.595Z,100354.91
2022-09-03T02:32:33.357Z,100363.94
2022-09-03T02:37:35.005Z,100362.63
2022-09-03T02:42:36.853Z,100368.91
2022-09-03T02:47:39.773Z,100360.66
2022-09-03T02:52:41.344Z,100365.47
2022-09-03T02:57:43.860Z,100358.78
2022-09-03T03:02:46.875Z,100357.94
2022-09-03T03:07:48.611Z,100353.41
2022-09-03T03:12:50.670Z,100355.94
2022-09-03T03:17:52.259Z,100351.09
2022-09-03T03:22:53.793Z,100344.16
2022-09-03T03:27:57.005Z,100343.06
2022-09-03T03:32:58.700Z,100344.13
2022-09-03T03:38:00.339Z,100347.66
2022-09-03T03:43:01.958Z,100350.81
2022-09-03T03:48:03.724Z,100350.34
2022-09-03T03:53:05.322Z,100356.25
2022-09-03T03:58:06.861Z,100343.63
2022-09-03T04:03:08.407Z,100356.78
2022-09-03T04:08:09.965Z,100350.56
2022-09-03T04:13:11.668Z,100339.63
2022-09-03T04:18:13.348Z,100345.91
2022-09-03T04:23:14.969Z,100345.56
2022-09-03T04:28:16.605Z,100335.16
2022-09-03T04:33:18.206Z,100340.19
2022-09-03T04:38:19.836Z,100336.19
2022-09-03T04:43:21.449Z,100341.75
2022-09-03T04:48:23.091Z,100340.72
2022-09-03T04:53:24.799Z,100343.41
2022-09-03T04:58:26.595Z,100348.94
2022-09-03T05:03:29.164Z,100359.69
2022-09-03T05:08:30.753Z,100353.97
2022-09-03T05:13:33.743Z,100358.66
2022-09-03T05:18:38.743Z,100351.09
2022-09-03T05:23:42.663Z,100347.19
2022-09-03T05:28:44.940Z,100349.88
2022-09-03T05:33:50.337Z,100344.44
2022-09-03T05:38:54.273Z,100352.78
2022-09-03T05:43:58.682Z,100360.25
2022-09-03T05:49:07.536Z,100362.44
2022-09-03T05:54:14.431Z,100345.22
2022-09-03T05:59:16.262Z,100358.88
2022-09-03T06:04:18.304Z,100352.44
2022-09-03T06:09:21.154Z,100363.31
2022-09-03T06:14:25.266Z,100360.88
2022-09-03T06:19:27.347Z,100357.16
2022-09-03T06:24:29.729Z,100366.22
2022-09-03T06:29:31.368Z,100371.59
2022-09-03T06:34:33.059Z,100363.81
2022-09-03T06:39:34.734Z,100373.72
2022-09-03T06:44:36.291Z,100373.72
2022-09-03T06:49:38.757Z,100372.31
2022-09-03T06:54:40.774Z,100371.84
2022-09-03T06:59:43.841Z,100371.13
2022-09-03T07:04:45.433Z,100360.41
2022-09-03T07:09:50.018Z,100366.72
2022-09-03T07:14:51.735Z,100360.13
2022-09-03T07:19:55.271Z,100362.25
2022-09-03T07:24:56.884Z,100362.41
2022-09-03T07:29:58.437Z,100362.09
2022-09-03T07:35:00.318Z,100351.38
2022-09-03T07:40:02.506Z,100347.63
2022-09-03T07:45:12.786Z,100331.53
2022-09-03T07:50:15.027Z,100336.63
2022-09-03T07:55:16.803Z,100332.31
2022-09-03T08:00:18.697Z,100337.16
2022-09-03T08:05:20.538Z,100334.28
2022-09-03T08:10:22.781Z,100336.63
2022-09-03T08:15:25.399Z,100332.19
2022-09-03T08:20:28.094Z,100335.16
2022-09-03T08:25:30.125Z,100331.41
2022-09-03T08:30:31.789Z,100332.94
2022-09-03T08:35:34.419Z,100321.38
2022-09-03T08:40:38.150Z,100313.75
2022-09-03T08:45:39.815Z,100322.34
2022-09-03T08:50:45.052Z,100320.25
2022-09-03T08:55:55.998Z,100317.75
2022-09-03T09:01:01.477Z,100316.59
2022-09-03T09:06:57.885Z,100305.38
2022-09-03T09:12:34.065Z,100301.63
2022-09-03T09:17:47.519Z,100304.16
2022-09-03T09:23:01.785Z,100303.34
2022-09-03T09:28:14.261Z,100303.84
2022-09-03T09:33:16.652Z,100287.59
2022-09-03T09:38:32.204Z,100300.56
2022-09-03T09:43:33.803Z,100285.09
2022-09-03T09:48:39.478Z,100292.88
2022-09-03T09:53:41.487Z,100273.69
2022-09-03T09:58:43.100Z,100291.88
2022-09-03T10:03:56.966Z,100276.88
2022-09-03T10:09:10.092Z,100260.16
2022-09-03T10:14:19.231Z,100259.53
2022-09-03T10:19:24.296Z,100268.94
2022-09-03T10:24:45.108Z,100259.56
2022-09-03T10:29:46.746Z,100254.75
2022-09-03T10:35:10.192Z,100244.31
2022-09-03T10:40:19.079Z,100243.88
2022-09-03T10:45:38.107Z,100235.78
2022-09-03T10:51:05.727Z,100233.06
2022-09-03T10:57:11.997Z,100219.69
2022-09-03T11:02:26.619Z,100227.81
2022-09-03T11:07:41.491Z,100233.03
2022-09-03T11:12:53.058Z,100220.91
2022-09-03T11:17:59.830Z,100225.69
2022-09-03T11:23:03.578Z,100210.81
2022-09-03T11:28:28.575Z,100214.19
2022-09-03T11:33:33.255Z,100207.50
2022-09-03T11:38:35.344Z,100212.50
2022-09-03T11:43:37.756Z,100203.69
2022-09-03T11:48:49.968Z,100211.00
2022-09-03T11:53:56.653Z,100207.63
2022-09-03T11:59:14.067Z,100214.47
2022-09-03T12:04:18.156Z,100204.88
2022-09-03T12:09:48.239Z,100201.97
2022-09-03T12:15:05.394Z,100196.50
2022-09-03T12:20:14.394Z,100192.28
2022-09-03T12:25:16.376Z,100184.78
2022-09-03T12:30:21.401Z,100190.22
2022-09-03T12:46:14.801Z,100177.56
2022-09-03T12:56:42.378Z,100177.06
2022-09-03T13:01:53.514Z,100162.44
2022-09-03T13:07:08.312Z,100173.09
2022-09-03T13:12:43.486Z,100169.94
2022-09-03T13:17:55.235Z,100158.81
2022-09-03T13:23:07.825Z,100152.41
2022-09-03T13:28:15.327Z,100163.53
2022-09-03T13:33:47.607Z,100147.28
2022-09-03T13:38:54.694Z,100142.88
2022-09-03T13:44:09.896Z,100149.75
2022-09-03T13:49:39.131Z,100143.34
2022-09-03T13:54:49.911Z,100136.16
2022-09-03T13:59:52.450Z,100137.00
2022-09-03T14:05:27.793Z,100136.50
2022-09-03T14:10:45.078Z,100129.66
2022-09-03T14:15:50.234Z,100130.13
2022-09-03T14:20:54.626Z,100126.91
2022-09-03T14:25:57.939Z,100129.66
2022-09-03T14:31:28.233Z,100126.69
2022-09-03T14:36:45.369Z,100140.13
2022-09-03T14:42:02.484Z,100135.09
2022-09-03T14:47:15.945Z,100133.88
2022-09-03T14:52:57.238Z,100131.38
2022-09-03T14:58:15.801Z,100128.50
2022-09-03T15:03:24.186Z,100135.84
2022-09-03T15:09:10.590Z,100132.00
2022-09-03T15:14:18.852Z,100132.06
2022-09-03T15:19:29.489Z,100120.34
2022-09-03T15:24:55.824Z,100134.19
2022-09-03T15:30:11.450Z,100120.34
2022-09-03T15:35:25.505Z,100119.75
2022-09-03T15:40:34.429Z,100122.41
2022-09-03T15:45:40.191Z,100125.78
2022-09-03T15:51:10.569Z,100123.88
2022-09-03T15:56:28.874Z,100124.97
2022-09-03T16:01:51.088Z,100129.63
2022-09-03T16:06:59.824Z,100125.00
2022-09-03T16:12:20.080Z,100135.72
2022-09-03T16:17:30.247Z,100131.50
2022-09-03T16:23:02.508Z,100130.66
2022-09-03T16:28:15.032Z,100124.19
2022-09-03T16:33:52.089Z,100123.19
2022-09-03T16:39:42.121Z,100122.56
2022-09-03T16:45:05.561Z,100137.22
2022-09-03T16:50:17.387Z,100132.03
2022-09-03T16:55:26.205Z,100129.31
2022-09-03T17:00:45.782Z,100125.16
2022-09-03T17:06:25.089Z,100125.16
2022-09-03T17:11:38.485Z,100119.78
2022-09-03T17:16:50.382Z,100122.69
2022-09-03T17:22:17.190Z,100115.81
2022-09-03T17:27:54.275Z,100116.91
2022-09-03T17:33:37.633Z,100119.25
2022-09-03T17:39:16.839Z,100130.78
2022-09-03T17:44:27.319Z,100132.47
2022-09-03T17:49:35.085Z,100138.38
2022-09-03T17:54:41.332Z,100144.00
2022-09-03T18:00:04.379Z,100142.19
2022-09-03T18:05:19.198Z,100149.53
2022-09-03T18:10:59.079Z,100139.72
2022-09-03T18:16:18.793Z,100156.66
2022-09-03T18:21:44.486Z,100164.63
2022-09-03T18:27:11.589Z,100169.88
2022-09-03T18:32:31.724Z,100187.06
2022-09-03T18:37:52.356Z,100181.84
2022-09-03T18:43:33.145Z,100184.16
2022-09-03T18:49:00.592Z,100189.59
2022-09-03T18:54:27.099Z,100185.63
2022-09-03T19:00:13.705Z,100193.19
2022-09-03T19:05:52.774Z,100193.97
2022-09-03T19:11:46.592Z,100201.09
2022-09-03T19:17:19.869Z,100198.16
2022-09-03T19:22:52.795Z,100200.03
2022-09-03T19:28:25.179Z,100203.38
2022-09-03T19:34:00.218Z,100197.31
2022-09-03T19:39:29.080Z,100208.19
2022-09-03T19:45:18.235Z,100208.19
2022-09-03T19:50:43.716Z,100210.09
2022-09-03T19:56:11.977Z,100212.38
2022-09-03T20:01:32.481Z,100226.38
2022-09-03T20:06:53.513Z,100223.00
2022-09-03T20:11:57.249Z,100229.25
2022-09-03T20:17:23.723Z,100233.66
2022-09-03T20:23:09.423Z,100233.44
2022-09-03T20:28:30.068Z,100244.31
2022-09-03T20:33:37.959Z,100249.28
2022-09-03T20:39:05.705Z,100254.09
2022-09-03T20:44:35.097Z,100248.69
2022-09-03T20:49:51.729Z,100256.78
2022-09-03T20:55:16.209Z,100264.75
2022-09-03T21:00:18.745Z,100258.06
2022-09-03T21:05:27.978Z,100258.88
2022-09-03T21:10:32.719Z,100261.97
2022-09-03T21:16:04.563Z,100260.94
2022-09-03T21:21:21.807Z,100260.53
2022-09-03T21:26:27.053Z,100265.53
2022-09-03T21:31:54.187Z,100268.84
2022-09-03T21:36:56.595Z,100273.44
2022-09-03T21:42:04.826Z,100271.16
2022-09-03T21:47:10.099Z,100274.41
2022-09-03T21:52:15.130Z,100277.69
2022-09-03T21:57:29.472Z,100278.72
2022-09-03T22:02:33.185Z,100285.41
2022-09-03T22:07:53.326Z,100287.88
2022-09-03T22:13:23.500Z,100285.75
2022-09-03T22:18:30.024Z,100293.41
2022-09-03T22:23:43.614Z,100294.38
2022-09-03T22:28:52.351Z,100296.53
2022-09-03T22:34:12.602Z,100290.50
2022-09-03T22:39:34.399Z,100286.72
2022-09-03T22:45:07.414Z,100280.41
2022-09-03T22:50:29.594Z,100283.28
2022-09-03T22:55:31.296Z,100291.84
2022-09-03T23:00:47.203Z,100282.97
2022-09-03T23:05:52.513Z,100285.81
2022-09-03T23:11:08.450Z,100288.25
2022-09-03T23:16:19.786Z,100283.63
2022-09-03T23:21:26.586Z,100290.88
2022-09-03T23:26:49.467Z,100291.78
2022-09-03T23:31:52.810Z,100281.34
2022-09-03T23:42:49.878Z,100295.28
2022-09-03T23:48:03.995Z,100285.53
2022-09-03T23:53:24.576Z,100293.06
2022-09-03T23:58:45.083Z,100287.66
